Chris — V7XF8 — position and weather

sailwx.info

Track history (hours):
 
Tides and Currents Weather Stations Pressure Air Temp Water Temp Dewpoint Dewpoint Depression Visibility Wind Speed Wind Dir Waves Ship Positions

Chris

Last reported at 2015-May-09 11:30 UTC. Time now 2015-Jul-06 19:57 UTC.
Position N 01°15' E 104°06'.
Warning: this ship's position is 58 days out of date.

Length 218 m; draft 8 m.

Type: Ship. MMSI: 538004472.

Date/timePositionNaut miles runAvg speedWind from/ knotsBaromVisibWave heightAir tempDewpointWater temp
2015-May-09 11:30N 01°15' E 104°06'6 6.4
2015-May-09 10:33N 01°18' E 104°01'0 0.0
2015-May-09 09:24N 01°17' E 104°01'0 0.0
2015-May-09 08:33N 01°17' E 104°01'0 0.1
2015-May-09 07:18N 01°18' E 104°01'0 0.2
2015-May-09 06:30N 01°18' E 104°01'0 0.1
2015-May-09 05:30N 01°18' E 104°01'0 0.0
2015-May-09 04:30N 01°18' E 104°01'0 0.0
2015-May-09 03:24N 01°18' E 104°01'0 0.0
2015-May-09 02:24N 01°18' E 104°01'0 0.1
2015-May-09 01:33N 01°18' E 104°01'0 0.0
2015-May-09 00:30N 01°18' E 104°01'0 0.0
2015-May-08 23:30N 01°18' E 104°01'0 0.0
2015-May-08 22:33N 01°18' E 104°01'0 0.0
2015-May-08 21:24N 01°18' E 104°01'0 0.0
2015-May-08 20:30N 01°18' E 104°01'1 0.8
2015-May-08 19:33N 01°17' E 104°01'4 3.9
2015-May-08 18:33N 01°17' E 104°05'4 2.9
2015-May-08 17:08N 01°16' E 104°09'1 2.2
2015-May-08 16:33N 01°17' E 104°09'  
2015-May-03 05:13N 22°47' E 119°41'812.6
2015-May-03 04:33N 22°54' E 119°46'  
Track history (hours):
 
Tides and Currents Weather Stations Pressure Air Temp Water Temp Dewpoint Dewpoint Depression Visibility Wind Speed Wind Dir Waves Ship Positions

Chris

Last reported at 2015-May-09 11:30 UTC. Time now 2015-Jul-06 19:57 UTC.
Position N 01°15' E 104°06'.
Warning: this ship's position is 58 days out of date.

Length 218 m; draft 8 m.

Type: Ship. MMSI: 538004472.

Date/timePositionNaut miles runAvg speedWind from/ knotsBaromVisibWave heightAir tempDewpointWater temp
2015-May-09 11:30N 01°15' E 104°06'6 6.4
2015-May-09 10:33N 01°18' E 104°01'0 0.0
2015-May-09 09:24N 01°17' E 104°01'0 0.0
2015-May-09 08:33N 01°17' E 104°01'0 0.1
2015-May-09 07:18N 01°18' E 104°01'0 0.2
2015-May-09 06:30N 01°18' E 104°01'0 0.1
2015-May-09 05:30N 01°18' E 104°01'0 0.0
2015-May-09 04:30N 01°18' E 104°01'0 0.0
2015-May-09 03:24N 01°18' E 104°01'0 0.0
2015-May-09 02:24N 01°18' E 104°01'0 0.1
2015-May-09 01:33N 01°18' E 104°01'0 0.0
2015-May-09 00:30N 01°18' E 104°01'0 0.0
2015-May-08 23:30N 01°18' E 104°01'0 0.0
2015-May-08 22:33N 01°18' E 104°01'0 0.0
2015-May-08 21:24N 01°18' E 104°01'0 0.0
2015-May-08 20:30N 01°18' E 104°01'1 0.8
2015-May-08 19:33N 01°17' E 104°01'4 3.9
2015-May-08 18:33N 01°17' E 104°05'4 2.9
2015-May-08 17:08N 01°16' E 104°09'1 2.2
2015-May-08 16:33N 01°17' E 104°09'  
2015-May-03 05:13N 22°47' E 119°41'812.6
2015-May-03 04:33N 22°54' E 119°46'  

Dump ship's entire track history